Arlee, Montana
Current Conditions -  °F | °C
As of 11:53 PM on Wednesday 22 Oct 2014 (Local Time) from KMSO Reporting Station
Overcast Overcast  
Wind Chill: 52°   Ceiling: 8000
Heat Index: 52°   Visibility: 10mi
Dew Point: 37°   Wind: 6mph
Humidity: 57%   Direction: 130°SE
Pressure: 29.9"   Gusts: NA
Location:  47.16°N, 114.09°W
Report Text: KMSO 230553Z AUTO 13005KT 10SM OVC080 11/03 A2990 RMK AO2 SLP126 T01110028 10150 20100 56004
Loading
Personal Weather Stations






























Interactive Weather Map
Tropical Storm Tracking
New forecast layout! Learn more

10-Day Weather Forecast

Advertisements
Track Severe Weather on mobile